Time;durP1;ratioP1;P1;durP2;ratioP2;P2;SDS_P1;SDS_P2;PMS_P1;PMS_P2;Temp;Humidity;BMP_temperature;BMP_pressure;BME280_temperature;BME280_humidity;BME280_pressure;Samples;Min_cycle;Max_cycle;Signal;HPM_P1;HPM_P2
2023/04/25 00:01:31;;;;;;;9.15;2.15;;;10.30;73.50;;;;;;5048127;28;20028;-68
2023/04/25 00:03:57;;;;;;;8.40;2.45;;;10.30;73.50;;;;;;5044323;28;20487;-68
2023/04/25 00:06:26;;;;;;;10.07;3.38;;;10.30;73.50;;;;;;5033495;28;20025;-68
2023/04/25 00:08:53;;;;;;;10.02;2.78;;;10.30;73.50;;;;;;5041858;28;20041;-68
2023/04/25 00:11:18;;;;;;;9.25;2.92;;;10.30;73.40;;;;;;5033956;28;20053;-68
2023/04/25 00:13:46;;;;;;;12.05;2.85;;;10.30;73.40;;;;;;5043732;28;20056;-68
2023/04/25 00:16:14;;;;;;;11.93;3.60;;;10.30;73.40;;;;;;5046403;28;20098;-68
2023/04/25 00:18:40;;;;;;;9.68;2.75;;;10.20;73.20;;;;;;5037109;28;20311;-68
2023/04/25 00:21:06;;;;;;;12.23;3.22;;;10.20;73.20;;;;;;5045205;28;20116;-68
2023/04/25 00:23:32;;;;;;;10.40;3.03;;;10.20;73.20;;;;;;5044299;28;20145;-68
2023/04/25 00:25:57;;;;;;;6.18;2.33;;;10.10;73.20;;;;;;5037849;28;20040;-68
2023/04/25 00:28:23;;;;;;;11.10;3.55;;;10.10;73.20;;;;;;5035464;28;20036;-68
2023/04/25 00:30:49;;;;;;;11.93;3.28;;;10.10;73.20;;;;;;5028307;28;20018;-68
2023/04/25 00:33:14;;;;;;;8.70;3.15;;;10.10;73.20;;;;;;5038035;28;20077;-69
2023/04/25 00:35:40;;;;;;;10.60;2.47;;;10.00;73.20;;;;;;5037662;28;20074;-68
2023/04/25 00:38:06;;;;;;;9.73;2.55;;;10.00;73.20;;;;;;5043669;28;20078;-68
2023/04/25 00:40:32;;;;;;;8.80;3.17;;;10.00;73.20;;;;;;5033153;28;20025;-68
2023/04/25 00:42:58;;;;;;;7.63;2.35;;;10.00;73.20;;;;;;5050760;28;20021;-68
2023/04/25 00:45:29;;;;;;;13.18;2.70;;;10.00;73.20;;;;;;5032853;28;20025;-68
2023/04/25 00:47:55;;;;;;;8.43;2.95;;;10.00;73.10;;;;;;5050038;28;20116;-68
2023/04/25 00:50:21;;;;;;;14.00;3.90;;;10.00;73.10;;;;;;5029909;28;20021;-68
2023/04/25 00:52:47;;;;;;;12.27;3.25;;;10.00;73.10;;;;;;5040576;28;20025;-68
2023/04/25 00:55:13;;;;;;;10.10;3.15;;;9.90;73.10;;;;;;5032058;28;20423;-68
2023/04/25 00:57:40;;;;;;;10.40;2.85;;;9.90;73.20;;;;;;5033191;28;20017;-69
2023/04/25 01:00:07;;;;;;;9.20;2.63;;;9.90;73.40;;;;;;5030668;28;20148;-68
2023/04/25 01:02:35;;;;;;;10.82;3.05;;;9.90;73.50;;;;;;5033659;28;20130;-69
2023/04/25 01:05:01;;;;;;;12.50;3.08;;;9.90;73.60;;;;;;5030969;28;20423;-69
2023/04/25 01:07:27;;;;;;;11.50;3.35;;;9.90;73.60;;;;;;5031904;28;20033;-69
2023/04/25 01:09:53;;;;;;;12.45;3.20;;;9.90;74.30;;;;;;5031712;28;20093;-70
2023/04/25 01:12:19;;;;;;;12.57;3.33;;;9.90;73.70;;;;;;5033912;28;20088;-69
2023/04/25 01:14:46;;;;;;;11.02;3.65;;;9.90;73.80;;;;;;5018272;28;20014;-69
2023/04/25 01:17:12;;;;;;;12.15;3.08;;;9.90;73.80;;;;;;5037586;28;20030;-69
2023/04/25 01:19:37;;;;;;;13.55;3.90;;;9.90;73.80;;;;;;5035814;28;20021;-68
2023/04/25 01:22:04;;;;;;;7.82;2.80;;;9.80;73.80;;;;;;5036042;28;20028;-68
2023/04/25 01:24:32;;;;;;;8.43;3.25;;;9.80;73.80;;;;;;5034071;28;20131;-68
2023/04/25 01:27:00;;;;;;;10.15;3.25;;;9.80;73.90;;;;;;5035816;28;20025;-68
2023/04/25 01:29:27;;;;;;;11.30;3.78;;;9.80;74.00;;;;;;5034242;28;20596;-68
2023/04/25 01:31:54;;;;;;;10.38;3.63;;;9.80;74.00;;;;;;5034908;28;20024;-69
2023/04/25 01:34:20;;;;;;;8.90;3.38;;;9.80;74.10;;;;;;5034505;28;20083;-69
2023/04/25 01:36:50;;;;;;;11.27;3.78;;;9.80;74.10;;;;;;5036146;28;20026;-69
2023/04/25 01:39:16;;;;;;;12.90;4.13;;;9.80;74.20;;;;;;5035903;28;20036;-69
2023/04/25 01:41:45;;;;;;;12.00;3.30;;;9.80;74.20;;;;;;5034308;28;20022;-69
2023/04/25 01:44:11;;;;;;;9.68;3.08;;;9.80;74.20;;;;;;5034768;28;20032;-69
2023/04/25 01:46:37;;;;;;;11.52;3.13;;;9.80;74.20;;;;;;5035600;28;20108;-69
2023/04/25 01:49:04;;;;;;;13.40;3.40;;;9.80;74.20;;;;;;5035450;28;20021;-69
2023/04/25 01:51:31;;;;;;;15.05;3.75;;;9.80;74.20;;;;;;5033336;28;20021;-68
2023/04/25 01:53:58;;;;;;;9.95;3.78;;;9.80;74.20;;;;;;5034562;28;20075;-68
2023/04/25 01:56:23;;;;;;;10.18;3.08;;;9.80;74.10;;;;;;5017185;28;20021;-69
2023/04/25 01:58:49;;;;;;;11.45;4.07;;;9.80;74.00;;;;;;5040811;28;20025;-69
2023/04/25 02:01:48;;;;;;;9.30;2.92;;;9.80;74.00;;;;;;5035094;28;20045;-69
2023/04/25 02:04:21;;;;;;;13.93;3.20;;;9.80;73.90;;;;;;5033204;28;20351;-69
2023/04/25 02:06:47;;;;;;;13.55;3.20;;;9.80;73.80;;;;;;5034138;28;20084;-69
2023/04/25 02:09:13;;;;;;;10.43;3.05;;;9.80;73.70;;;;;;5035204;28;20051;-69
2023/04/25 02:11:44;;;;;;;8.27;3.35;;;9.80;73.50;;;;;;5017789;28;20060;-69
2023/04/25 02:14:24;;;;;;;8.35;3.13;;;9.80;73.40;;;;;;5014834;28;20057;-69
2023/04/25 02:16:59;;;;;;;11.85;3.42;;;9.70;73.40;;;;;;5015263;28;20069;-69
2023/04/25 02:19:27;;;;;;;8.85;3.15;;;9.70;74.00;;;;;;5035151;28;20053;-69
2023/04/25 02:21:52;;;;;;;10.52;3.30;;;9.70;73.30;;;;;;5034126;28;20025;-69
2023/04/25 02:24:18;;;;;;;11.52;3.22;;;9.70;73.30;;;;;;5035066;28;20102;-69
2023/04/25 02:26:44;;;;;;;12.55;4.00;;;9.70;73.30;;;;;;5016706;28;20025;-69
2023/04/25 02:29:10;;;;;;;11.38;3.25;;;9.70;73.30;;;;;;5034682;28;20029;-69
2023/04/25 02:31:36;;;;;;;12.50;3.38;;;9.70;73.30;;;;;;5017339;28;20018;-69
2023/04/25 02:34:01;;;;;;;12.32;3.60;;;9.70;73.30;;;;;;5016038;28;20033;-68
2023/04/25 02:36:30;;;;;;;10.77;3.38;;;9.70;73.20;;;;;;5033702;28;20022;-69
2023/04/25 02:38:55;;;;;;;13.55;3.47;;;9.70;73.20;;;;;;5033724;28;20033;-69
2023/04/25 02:41:21;;;;;;;10.10;3.70;;;9.70;73.00;;;;;;5033376;28;20025;-69
2023/04/25 02:43:47;;;;;;;9.65;3.22;;;9.70;73.00;;;;;;5033052;28;20046;-69
2023/04/25 02:46:12;;;;;;;11.52;3.50;;;9.70;72.90;;;;;;5016557;28;20095;-69
2023/04/25 02:48:39;;;;;;;10.75;3.20;;;9.70;72.90;;;;;;5033653;28;20362;-69
2023/04/25 02:51:05;;;;;;;10.18;3.78;;;9.60;72.70;;;;;;5032439;28;20031;-69
2023/04/25 02:53:31;;;;;;;13.85;3.22;;;9.60;72.60;;;;;;5033673;28;20025;-69
2023/04/25 02:55:58;;;;;;;13.38;2.83;;;9.60;72.60;;;;;;5031702;28;20490;-69
2023/04/25 02:58:24;;;;;;;9.80;3.72;;;9.50;72.40;;;;;;5028862;28;20017;-69
2023/04/25 03:00:52;;;;;;;11.27;3.65;;;9.50;72.40;;;;;;5033447;28;20017;-69
2023/04/25 03:03:21;;;;;;;8.70;3.15;;;9.50;72.40;;;;;;5032908;28;20024;-70
2023/04/25 03:05:48;;;;;;;11.07;3.28;;;9.50;72.40;;;;;;5021539;28;20029;-69
2023/04/25 03:08:17;;;;;;;12.80;4.03;;;9.50;72.30;;;;;;5029829;28;20106;-69
2023/04/25 03:10:44;;;;;;;10.68;2.95;;;9.50;72.20;;;;;;5033007;28;20029;-69
2023/04/25 03:13:10;;;;;;;14.95;3.00;;;9.50;72.20;;;;;;5033027;28;20031;-69
2023/04/25 03:15:37;;;;;;;11.13;3.53;;;9.40;72.80;;;;;;5032157;28;20116;-69
2023/04/25 03:18:03;;;;;;;10.80;3.53;;;9.40;72.10;;;;;;5033946;28;20013;-69
2023/04/25 03:20:29;;;;;;;10.45;3.33;;;9.40;72.00;;;;;;5033579;28;20041;-69
2023/04/25 03:22:55;;;;;;;8.80;3.50;;;9.30;72.00;;;;;;5030818;28;20030;-69
2023/04/25 03:25:21;;;;;;;9.35;3.03;;;9.30;72.00;;;;;;5016608;28;20056;-69
2023/04/25 03:27:47;;;;;;;10.65;3.15;;;9.30;72.00;;;;;;5031661;28;20063;-69
2023/04/25 03:30:13;;;;;;;11.93;3.75;;;9.30;72.00;;;;;;5033685;28;20029;-69
2023/04/25 03:32:40;;;;;;;11.38;4.25;;;9.30;72.10;;;;;;5030977;28;20026;-69
2023/04/25 03:35:06;;;;;;;16.27;3.47;;;9.30;72.00;;;;;;5033311;28;20029;-69
2023/04/25 03:37:32;;;;;;;11.43;3.67;;;9.20;72.00;;;;;;5029584;28;20496;-69
2023/04/25 03:39:58;;;;;;;11.82;3.40;;;9.20;72.10;;;;;;5032688;28;20116;-69
2023/04/25 03:42:30;;;;;;;12.88;2.83;;;9.20;72.10;;;;;;5032422;28;20036;-70
2023/04/25 03:44:56;;;;;;;13.48;3.42;;;9.20;72.10;;;;;;5032742;28;20029;-69
2023/04/25 03:47:22;;;;;;;11.15;3.47;;;9.20;72.10;;;;;;5038349;28;20358;-69
2023/04/25 03:49:51;;;;;;;8.38;2.80;;;9.20;72.10;;;;;;5040458;28;20361;-69
2023/04/25 03:52:18;;;;;;;13.75;3.97;;;9.10;72.10;;;;;;5048537;28;20022;-69
2023/04/25 03:54:44;;;;;;;13.02;3.38;;;9.10;72.10;;;;;;5042199;28;20047;-69
2023/04/25 03:57:17;;;;;;;9.48;3.00;;;9.10;72.20;;;;;;5043277;28;20067;-69
2023/04/25 03:59:44;;;;;;;12.75;3.63;;;9.10;72.20;;;;;;5054327;28;20025;-69
2023/04/25 04:02:11;;;;;;;10.40;3.40;;;9.10;72.20;;;;;;5048866;28;20025;-69
2023/04/25 04:04:38;;;;;;;9.18;3.17;;;9.10;72.10;;;;;;5013783;28;20147;-68
2023/04/25 04:07:04;;;;;;;11.70;3.33;;;9.10;72.10;;;;;;5032041;28;20109;-68
2023/04/25 04:09:33;;;;;;;12.15;3.53;;;9.10;72.10;;;;;;5037163;28;20157;-69
2023/04/25 04:12:03;;;;;;;10.95;3.17;;;9.00;72.10;;;;;;5028738;28;20371;-68
2023/04/25 04:14:31;;;;;;;12.25;3.35;;;9.00;72.10;;;;;;5020877;28;20082;-68
2023/04/25 04:16:56;;;;;;;8.93;2.95;;;9.00;72.10;;;;;;5024719;28;20025;-68
2023/04/25 04:19:22;;;;;;;10.40;3.58;;;9.00;72.20;;;;;;5027202;28;20029;-69
2023/04/25 04:22:08;;;;;;;13.32;3.47;;;9.00;72.20;;;;;;5042573;28;20029;-69
2023/04/25 04:24:34;;;;;;;12.38;3.80;;;8.90;72.10;;;;;;5033388;28;20055;-68
2023/04/25 04:27:04;;;;;;;13.32;3.40;;;8.90;72.10;;;;;;5040584;28;20040;-68
2023/04/25 04:29:36;;;;;;;12.18;2.97;;;8.90;72.10;;;;;;5035834;28;20021;-69
2023/04/25 04:32:14;;;;;;;8.52;3.25;;;8.90;72.10;;;;;;5052842;28;20025;-68
2023/04/25 04:34:41;;;;;;;10.40;3.05;;;8.90;72.10;;;;;;5032866;28;20025;-68
2023/04/25 04:37:07;;;;;;;12.63;3.95;;;8.90;72.10;;;;;;5032788;28;20030;-69
2023/04/25 04:39:34;;;;;;;13.60;3.67;;;8.90;72.10;;;;;;5029336;28;20116;-68
2023/04/25 04:42:06;;;;;;;10.45;3.35;;;8.90;72.20;;;;;;5032633;28;20031;-69
2023/04/25 04:44:52;;;;;;;11.30;3.30;;;8.90;72.10;;;;;;5032255;28;20397;-68
2023/04/25 04:47:36;;;;;;;11.95;3.55;;;8.90;72.00;;;;;;5036504;28;20052;-69
2023/04/25 04:50:16;;;;;;;15.45;3.67;;;8.90;72.00;;;;;;5032079;28;20033;-68
2023/04/25 04:53:04;;;;;;;8.50;3.55;;;8.90;72.00;;;;;;5015930;28;20358;-68
2023/04/25 04:55:55;;;;;;;8.13;2.75;;;8.90;71.90;;;;;;5037613;28;20037;-68
2023/04/25 04:58:36;;;;;;;15.35;3.60;;;8.90;71.80;;;;;;5044798;28;20358;-69
2023/04/25 05:01:18;;;;;;;11.50;3.20;;;8.90;71.70;;;;;;5016851;28;20037;-68
2023/04/25 05:04:07;;;;;;;10.73;2.85;;;9.00;71.70;;;;;;5035192;28;20055;-68
2023/04/25 05:06:44;;;;;;;9.32;3.65;;;9.00;71.70;;;;;;5036102;28;20086;-68
2023/04/25 05:09:28;;;;;;;6.85;2.80;;;9.00;71.60;;;;;;5032274;28;20145;-70
2023/04/25 05:12:06;;;;;;;10.48;3.17;;;9.00;71.50;;;;;;5021252;28;20025;-70
2023/04/25 05:14:53;;;;;;;11.60;3.42;;;9.00;71.40;;;;;;5035056;28;20033;-72
2023/04/25 05:17:50;;;;;;;9.65;3.80;;;9.00;71.40;;;;;;5027981;28;20401;-71
2023/04/25 05:20:32;;;;;;;9.93;3.70;;;9.00;71.40;;;;;;5032752;28;20393;-72
2023/04/25 05:23:25;;;;;;;10.68;3.72;;;9.00;71.40;;;;;;5023215;28;20041;-71
2023/04/25 05:26:13;;;;;;;12.00;3.83;;;9.00;71.50;;;;;;5036333;28;20049;-71
2023/04/25 05:28:50;;;;;;;9.73;3.25;;;9.00;71.50;;;;;;5020217;28;20091;-71
2023/04/25 05:31:37;;;;;;;15.98;4.60;;;9.00;71.50;;;;;;5040231;28;20056;-72
2023/04/25 05:34:12;;;;;;;13.23;3.75;;;9.00;71.40;;;;;;5034415;28;20056;-71
2023/04/25 05:36:59;;;;;;;10.38;3.35;;;9.10;71.30;;;;;;5021217;28;20022;-70
2023/04/25 05:39:25;;;;;;;15.13;3.30;;;9.10;71.30;;;;;;5018581;28;20083;-70
2023/04/25 05:42:11;;;;;;;8.65;3.08;;;9.10;71.10;;;;;;5025933;28;20553;-71
2023/04/25 05:45:01;;;;;;;10.48;3.33;;;9.10;71.20;;;;;;5024167;28;20025;-70
2023/04/25 05:47:41;;;;;;;11.23;2.83;;;9.10;71.10;;;;;;5035832;28;20501;-70
2023/04/25 05:50:16;;;;;;;9.73;3.88;;;9.10;71.10;;;;;;5019247;28;20033;-70
2023/04/25 05:52:53;;;;;;;10.23;3.15;;;9.20;71.10;;;;;;5035046;28;20087;-71
2023/04/25 05:55:31;;;;;;;10.95;3.22;;;9.20;71.10;;;;;;5033429;28;20168;-70
2023/04/25 05:57:59;;;;;;;10.98;3.80;;;9.20;71.00;;;;;;5030910;28;20021;-70
2023/04/25 06:00:25;;;;;;;12.38;3.55;;;9.20;70.90;;;;;;5047471;28;20120;-70
2023/04/25 06:02:50;;;;;;;10.95;3.00;;;9.30;71.00;;;;;;5037550;28;20508;-71
2023/04/25 06:05:17;;;;;;;13.68;3.30;;;9.30;70.90;;;;;;5034689;28;20025;-71
2023/04/25 06:07:45;;;;;;;11.65;4.00;;;9.30;70.80;;;;;;5034856;28;20059;-70
2023/04/25 06:10:10;;;;;;;9.35;3.30;;;9.40;70.70;;;;;;5033788;28;20423;-72
2023/04/25 06:12:38;;;;;;;8.27;2.90;;;9.50;70.60;;;;;;5032656;28;20516;-72
2023/04/25 06:15:06;;;;;;;10.70;3.22;;;9.60;70.50;;;;;;5036403;28;20481;-70
2023/04/25 06:17:32;;;;;;;12.07;4.07;;;9.60;70.30;;;;;;5028152;28;20091;-69
2023/04/25 06:19:59;;;;;;;11.52;3.85;;;9.70;70.10;;;;;;5017367;28;20036;-70
2023/04/25 06:22:25;;;;;;;12.60;3.15;;;9.80;70.10;;;;;;5031291;28;20029;-71
2023/04/25 06:24:50;;;;;;;9.93;3.40;;;9.80;70.00;;;;;;5029924;28;20358;-70
2023/04/25 06:27:16;;;;;;;9.98;3.95;;;9.90;69.90;;;;;;5033037;28;20071;-71
2023/04/25 06:29:42;;;;;;;13.10;3.25;;;9.90;69.90;;;;;;5018612;28;20039;-71
2023/04/25 06:32:08;;;;;;;12.30;3.13;;;10.00;69.80;;;;;;5033494;28;20512;-70
2023/04/25 06:34:34;;;;;;;9.02;3.25;;;10.10;69.70;;;;;;5031135;28;20030;-70
2023/04/25 06:37:00;;;;;;;9.20;2.72;;;10.20;69.40;;;;;;5033172;28;20059;-71
2023/04/25 06:39:26;;;;;;;11.68;3.45;;;10.30;69.20;;;;;;5030924;28;20017;-70
2023/04/25 06:41:53;;;;;;;9.88;3.00;;;10.30;69.10;;;;;;5016482;28;20129;-70
2023/04/25 06:44:37;;;;;;;9.05;3.10;;;10.40;69.00;;;;;;5033714;28;20057;-71
2023/04/25 06:47:06;;;;;;;11.13;3.40;;;10.40;68.80;;;;;;5016094;28;20060;-70
2023/04/25 06:49:32;;;;;;;10.95;3.22;;;10.40;68.60;;;;;;5035362;28;20450;-71
2023/04/25 06:51:58;;;;;;;12.55;4.00;;;10.50;68.40;;;;;;5031805;28;20022;-71
2023/04/25 06:54:24;;;;;;;8.55;2.75;;;10.50;68.30;;;;;;5035405;28;20029;-74
2023/04/25 06:57:00;;;;;;;7.68;2.47;;;10.50;68.30;;;;;;5015434;28;20030;-74
2023/04/25 06:59:27;;;;;;;7.50;2.78;;;10.50;68.10;;;;;;5014080;28;20029;-74
2023/04/25 07:01:53;;;;;;;11.13;2.65;;;10.50;67.90;;;;;;5032955;28;20025;-75
2023/04/25 07:04:23;;;;;;;8.20;2.92;;;10.50;67.80;;;;;;5033377;28;20029;-74
2023/04/25 07:06:56;;;;;;;10.63;2.97;;;10.50;67.80;;;;;;5031058;28;20044;-75
2023/04/25 07:09:45;;;;;;;7.88;3.13;;;10.50;67.90;;;;;;5031004;28;20366;-75
2023/04/25 07:12:11;;;;;;;8.55;2.80;;;10.60;67.90;;;;;;5022315;28;20040;-71
2023/04/25 07:14:37;;;;;;;6.97;2.83;;;10.60;67.90;;;;;;5006537;28;20026;-73
2023/04/25 07:17:06;;;;;;;10.10;2.75;;;10.60;67.80;;;;;;5028306;28;20017;-73
2023/04/25 07:19:33;;;;;;;8.85;2.45;;;10.80;67.70;;;;;;5031545;28;20021;-72
2023/04/25 07:22:00;;;;;;;7.90;2.72;;;11.20;67.40;;;;;;5028799;28;20030;-72
2023/04/25 07:24:26;;;;;;;9.48;2.65;;;11.60;66.70;;;;;;5011763;28;20370;-72
2023/04/25 07:26:54;;;;;;;12.15;3.30;;;12.00;65.90;;;;;;5029425;28;20151;-72
2023/04/25 07:29:32;;;;;;;8.27;2.75;;;12.30;65.20;;;;;;5030504;28;20025;-72
2023/04/25 07:31:59;;;;;;;12.93;3.03;;;12.60;64.50;;;;;;5013884;28;20121;-72
2023/04/25 07:34:25;;;;;;;8.38;2.70;;;13.00;64.00;;;;;;5026903;28;20429;-72
2023/04/25 07:36:51;;;;;;;7.15;2.08;;;13.30;63.10;;;;;;5030512;28;20021;-72
2023/04/25 07:39:17;;;;;;;8.00;2.40;;;13.50;62.60;;;;;;5027357;28;20057;-76
2023/04/25 07:41:43;;;;;;;8.65;2.42;;;13.50;62.30;;;;;;5027020;28;20037;-76
2023/04/25 07:44:13;;;;;;;11.45;2.80;;;13.50;62.10;;;;;;5024740;28;20048;-76
2023/04/25 07:46:39;;;;;;;6.85;2.20;;;13.60;61.70;;;;;;5026893;28;20033;-76
2023/04/25 07:49:06;;;;;;;9.13;2.55;;;13.50;61.40;;;;;;5024041;28;20113;-74
2023/04/25 07:51:32;;;;;;;8.85;2.30;;;13.50;61.40;;;;;;5011494;28;20510;-74
2023/04/25 07:54:05;;;;;;;9.35;2.15;;;13.60;61.00;;;;;;5020513;28;20045;-75
2023/04/25 07:56:31;;;;;;;6.25;2.15;;;13.50;60.80;;;;;;5046638;28;20412;-75
2023/04/25 07:58:57;;;;;;;9.00;1.95;;;13.40;60.60;;;;;;5019957;28;20072;-74
2023/04/25 08:01:23;;;;;;;9.18;1.80;;;13.30;60.60;;;;;;5031190;28;20056;-75
2023/04/25 08:03:56;;;;;;;7.97;2.92;;;13.20;60.50;;;;;;5034159;28;20021;-75
2023/04/25 08:06:29;;;;;;;6.57;1.98;;;13.00;60.50;;;;;;5032490;28;20094;-74
2023/04/25 08:09:06;;;;;;;9.95;1.60;;;13.00;60.50;;;;;;5032351;28;20048;-74
2023/04/25 08:11:37;;;;;;;6.97;1.60;;;13.10;60.10;;;;;;5032435;28;20029;-75
2023/04/25 08:14:04;;;;;;;7.95;2.03;;;13.10;59.90;;;;;;5030111;28;20033;-74
2023/04/25 08:16:30;;;;;;;6.88;2.00;;;13.10;59.90;;;;;;5030094;28;20397;-74
2023/04/25 08:18:56;;;;;;;8.23;1.90;;;13.30;59.60;;;;;;5026412;28;20083;-75
2023/04/25 08:21:22;;;;;;;7.82;2.20;;;13.70;58.80;;;;;;5029173;28;20025;-75
2023/04/25 08:23:48;;;;;;;8.10;2.03;;;14.00;57.80;;;;;;5047524;28;20045;-75
2023/04/25 08:26:22;;;;;;;6.88;1.45;;;14.40;56.80;;;;;;5022711;28;20025;-75
2023/04/25 08:28:50;;;;;;;5.60;1.63;;;14.70;56.10;;;;;;5017068;28;20075;-75
2023/04/25 08:31:16;;;;;;;5.43;1.42;;;14.90;55.20;;;;;;5016504;28;20104;-75
2023/04/25 08:33:51;;;;;;;6.68;1.42;;;15.20;54.40;;;;;;5011317;28;20022;-75
2023/04/25 08:36:31;;;;;;;4.95;1.55;;;15.50;53.80;;;;;;5020057;28;20018;-75
2023/04/25 08:38:58;;;;;;;3.90;1.20;;;15.80;53.20;;;;;;5033203;28;20063;-75
2023/04/25 08:41:25;;;;;;;7.40;1.75;;;15.80;52.50;;;;;;5018912;28;20047;-75
2023/04/25 08:43:51;;;;;;;4.93;1.40;;;15.50;52.50;;;;;;5032863;28;20052;-75
2023/04/25 08:46:18;;;;;;;3.88;1.13;;;15.20;52.50;;;;;;5015076;28;20370;-76
2023/04/25 08:49:18;;;;;;;6.38;1.35;;;14.80;52.70;;;;;;5032227;28;20041;-75
2023/04/25 08:51:47;;;;;;;4.07;1.05;;;14.40;54.10;;;;;;5032929;28;20029;-75
2023/04/25 08:54:14;;;;;;;7.47;1.80;;;14.00;53.90;;;;;;5021063;28;20510;-75
2023/04/25 08:56:44;;;;;;;6.00;1.67;;;13.80;54.20;;;;;;5016269;28;20486;-75
2023/04/25 08:59:11;;;;;;;7.55;1.73;;;13.50;54.30;;;;;;5016132;28;20029;-75
2023/04/25 09:01:38;;;;;;;4.70;1.33;;;13.40;54.40;;;;;;5031819;28;20026;-75
2023/04/25 09:04:04;;;;;;;6.07;1.75;;;13.30;54.70;;;;;;5032920;28;20029;-75
2023/04/25 09:06:30;;;;;;;7.13;1.70;;;13.20;54.80;;;;;;5030854;28;20025;-75
2023/04/25 09:09:04;;;;;;;6.95;1.45;;;13.20;54.90;;;;;;5012888;28;20124;-72
2023/04/25 09:11:31;;;;;;;7.85;1.77;;;13.10;54.90;;;;;;5028598;28;20096;-74
2023/04/25 09:14:15;;;;;;;6.60;1.55;;;13.00;55.10;;;;;;5030720;28;20026;-76
2023/04/25 09:16:57;;;;;;;7.32;1.50;;;12.90;55.20;;;;;;5030306;28;20048;-75
2023/04/25 09:19:38;;;;;;;5.78;1.35;;;12.80;55.30;;;;;;5029982;28;20350;-75
2023/04/25 09:22:04;;;;;;;9.38;1.70;;;12.80;55.30;;;;;;5026395;28;20037;-75
2023/04/25 09:24:35;;;;;;;3.45;1.40;;;12.70;55.10;;;;;;5029277;28;21049;-75
2023/04/25 09:27:11;;;;;;;7.95;2.05;;;12.70;54.80;;;;;;5031179;28;20041;-74
2023/04/25 09:29:39;;;;;;;5.82;1.73;;;12.80;54.70;;;;;;5005641;28;20033;-75
2023/04/25 09:32:15;;;;;;;3.72;0.98;;;12.90;54.80;;;;;;5034889;28;20116;-75
2023/04/25 09:34:50;;;;;;;6.93;1.85;;;12.90;54.50;;;;;;5035605;28;20346;-75
2023/04/25 09:37:19;;;;;;;3.47;0.88;;;12.90;54.30;;;;;;5020037;28;20059;-76
2023/04/25 09:40:07;;;;;;;7.93;2.15;;;13.00;54.30;;;;;;5033111;28;20164;-75
2023/04/25 09:42:36;;;;;;;4.72;1.27;;;13.10;54.30;;;;;;5023666;28;20064;-76
2023/04/25 09:45:03;;;;;;;6.05;1.48;;;13.20;54.00;;;;;;5034058;28;20025;-75
2023/04/25 09:47:38;;;;;;;6.60;1.70;;;13.30;53.50;;;;;;5034620;28;20030;-75
2023/04/25 09:50:17;;;;;;;4.05;1.15;;;13.70;52.80;;;;;;5018596;28;20119;-76
2023/04/25 09:53:03;;;;;;;5.60;1.52;;;14.20;52.20;;;;;;5035455;28;20091;-75
2023/04/25 09:55:35;;;;;;;6.20;1.42;;;14.70;52.20;;;;;;5036727;28;20125;-75
2023/04/25 09:58:07;;;;;;;5.53;1.67;;;15.00;51.00;;;;;;5033788;28;20053;-74
2023/04/25 10:00:35;;;;;;;4.93;1.60;;;15.20;50.60;;;;;;5012131;28;20451;-74
2023/04/25 10:03:11;;;;;;;6.13;1.30;;;15.60;50.40;;;;;;5014888;28;20163;-74
2023/04/25 10:06:01;;;;;;;4.75;1.20;;;15.70;50.30;;;;;;5046245;28;20042;-74
2023/04/25 10:08:33;;;;;;;4.13;0.98;;;15.90;49.90;;;;;;5019762;28;20402;-74
2023/04/25 10:11:07;;;;;;;4.32;1.17;;;16.20;49.10;;;;;;5004541;28;20037;-74
2023/04/25 10:13:34;;;;;;;3.20;1.08;;;16.40;48.40;;;;;;5029951;28;20132;-74
2023/04/25 10:16:03;;;;;;;4.25;1.15;;;16.20;48.40;;;;;;5021325;28;20371;-74
2023/04/25 10:18:30;;;;;;;3.70;0.98;;;15.90;48.40;;;;;;5013709;28;20022;-74
2023/04/25 10:21:05;;;;;;;7.32;1.60;;;15.60;48.50;;;;;;5030149;28;20041;-70
2023/04/25 10:23:32;;;;;;;5.43;1.52;;;15.30;48.40;;;;;;5030063;28;20339;-75
2023/04/25 10:25:58;;;;;;;3.25;1.20;;;15.00;48.90;;;;;;5033081;28;20022;-74
2023/04/25 10:28:24;;;;;;;5.68;1.30;;;14.70;49.10;;;;;;5032138;28;20029;-75
2023/04/25 10:31:02;;;;;;;3.58;1.13;;;14.60;49.40;;;;;;5034211;28;20164;-74
2023/04/25 10:33:39;;;;;;;3.08;1.17;;;14.60;49.20;;;;;;5033765;28;20453;-75
2023/04/25 10:36:17;;;;;;;4.18;1.20;;;14.50;48.80;;;;;;5048904;28;20025;-73
2023/04/25 10:38:44;;;;;;;4.57;1.33;;;14.40;48.70;;;;;;5040552;28;20045;-74
2023/04/25 10:41:10;;;;;;;4.05;1.38;;;14.20;49.00;;;;;;5035023;28;20036;-74
2023/04/25 10:43:42;;;;;;;4.32;1.25;;;14.10;49.00;;;;;;5032629;28;20378;-72
2023/04/25 10:46:24;;;;;;;5.82;1.42;;;14.00;49.40;;;;;;5032818;28;20112;-73
2023/04/25 10:48:55;;;;;;;4.57;1.40;;;13.90;50.00;;;;;;5033443;28;20032;-73
2023/04/25 10:51:23;;;;;;;4.68;1.15;;;13.70;50.60;;;;;;5034968;28;20108;-73
2023/04/25 10:53:55;;;;;;;4.90;1.38;;;13.70;51.10;;;;;;5033622;28;20079;-73
2023/04/25 10:56:22;;;;;;;5.47;1.40;;;13.80;51.50;;;;;;5034816;28;20025;-73
2023/04/25 10:58:48;;;;;;;5.28;1.27;;;13.90;51.60;;;;;;5033728;28;20040;-73
2023/04/25 11:01:19;;;;;;;4.68;1.48;;;14.10;51.50;;;;;;5031587;28;20445;-74
2023/04/25 11:03:47;;;;;;;6.97;1.55;;;14.20;51.40;;;;;;5032057;28;20041;-73
2023/04/25 11:06:36;;;;;;;4.47;1.25;;;14.30;51.40;;;;;;5033661;28;20018;-69
2023/04/25 11:09:09;;;;;;;6.75;1.30;;;14.30;51.30;;;;;;5030411;28;20052;-73
2023/04/25 11:11:36;;;;;;;6.03;1.25;;;14.40;51.40;;;;;;5035139;28;20025;-73
2023/04/25 11:14:02;;;;;;;4.05;1.20;;;14.50;51.20;;;;;;5030941;28;20032;-74
2023/04/25 11:16:28;;;;;;;4.07;1.20;;;14.50;51.10;;;;;;5032208;28;20437;-74
2023/04/25 11:18:57;;;;;;;4.15;1.25;;;14.60;51.00;;;;;;5033279;28;20490;-74
2023/04/25 11:21:23;;;;;;;6.35;1.55;;;14.60;50.70;;;;;;5031220;28;20026;-74
2023/04/25 11:23:49;;;;;;;5.28;1.48;;;14.50;50.50;;;;;;5018611;28;20044;-74
2023/04/25 11:26:15;;;;;;;6.47;1.08;;;14.50;50.60;;;;;;5034391;28;20427;-74
2023/04/25 11:28:45;;;;;;;6.82;1.50;;;14.80;50.20;;;;;;5038273;28;20041;-74
2023/04/25 11:31:11;;;;;;;7.55;1.45;;;14.80;49.80;;;;;;5033505;28;20359;-74
2023/04/25 11:33:36;;;;;;;4.78;1.05;;;14.80;49.60;;;;;;5037398;28;20033;-74
2023/04/25 11:36:02;;;;;;;4.10;0.98;;;15.00;49.10;;;;;;5034632;28;20057;-74
2023/04/25 11:38:28;;;;;;;5.38;1.20;;;15.20;48.40;;;;;;5035602;28;20056;-73
2023/04/25 11:40:55;;;;;;;4.82;1.20;;;15.50;47.90;;;;;;5032165;28;20458;-73
2023/04/25 11:43:22;;;;;;;2.42;1.00;;;15.70;47.20;;;;;;5033421;28;20423;-73
2023/04/25 11:45:50;;;;;;;5.82;1.30;;;15.90;46.50;;;;;;5032778;28;20307;-72
2023/04/25 11:48:16;;;;;;;2.67;0.98;;;16.00;46.00;;;;;;5034500;28;20021;-72
2023/04/25 11:50:42;;;;;;;2.97;0.98;;;16.00;46.00;;;;;;5033816;28;20075;-72
2023/04/25 11:53:08;;;;;;;3.85;0.88;;;15.90;46.00;;;;;;5034161;28;20074;-72
2023/04/25 11:55:34;;;;;;;5.75;1.00;;;15.70;46.00;;;;;;5032239;28;20454;-72
2023/04/25 11:58:02;;;;;;;2.60;0.90;;;15.50;46.30;;;;;;5033803;28;20017;-72
2023/04/25 12:00:27;;;;;;;3.70;1.15;;;15.40;46.20;;;;;;5031361;28;20055;-72
2023/04/25 12:02:55;;;;;;;3.95;1.45;;;15.60;45.90;;;;;;5032737;28;20372;-72
2023/04/25 12:05:26;;;;;;;5.53;1.33;;;15.60;45.60;;;;;;5031552;28;20048;-72
2023/04/25 12:07:52;;;;;;;2.70;0.93;;;15.50;45.60;;;;;;5032552;28;20025;-72
2023/04/25 12:10:18;;;;;;;5.55;1.30;;;15.50;45.60;;;;;;5030430;28;20160;-73
2023/04/25 12:12:48;;;;;;;3.13;1.13;;;15.30;45.60;;;;;;5028960;28;20473;-74
2023/04/25 12:15:25;;;;;;;5.57;1.10;;;15.20;45.70;;;;;;5030425;28;20073;-75
2023/04/25 12:17:52;;;;;;;5.15;1.30;;;15.00;46.00;;;;;;5019410;28;20044;-76
2023/04/25 12:20:26;;;;;;;5.93;1.58;;;14.90;46.40;;;;;;5031886;28;20068;-75
2023/04/25 12:22:52;;;;;;;3.10;1.25;;;14.60;46.90;;;;;;5028988;28;20025;-75
2023/04/25 12:25:41;;;;;;;5.15;1.30;;;14.40;47.40;;;;;;5025763;28;20029;-74
2023/04/25 12:28:16;;;;;;;4.63;1.30;;;14.20;47.90;;;;;;5010067;28;20088;-73
2023/04/25 12:30:54;;;;;;;3.67;1.15;;;14.00;48.40;;;;;;5028016;28;20478;-74
2023/04/25 12:33:21;;;;;;;3.92;0.93;;;13.80;48.90;;;;;;5019326;28;20455;-73
2023/04/25 12:35:47;;;;;;;4.68;1.42;;;13.60;49.30;;;;;;5031805;28;20111;-73
2023/04/25 12:38:29;;;;;;;5.38;1.40;;;13.40;49.50;;;;;;5026595;28;20025;-73
2023/04/25 12:40:55;;;;;;;3.25;0.93;;;13.40;49.70;;;;;;5030312;28;20527;-74
2023/04/25 12:43:21;;;;;;;4.80;1.23;;;13.30;49.80;;;;;;5027901;28;20029;-74
2023/04/25 12:45:51;;;;;;;3.63;1.08;;;13.30;50.00;;;;;;5044519;28;20071;-73
2023/04/25 12:48:18;;;;;;;2.97;0.90;;;13.30;50.00;;;;;;5027921;28;20171;-73
2023/04/25 12:50:44;;;;;;;4.25;1.08;;;13.30;49.90;;;;;;5028329;28;20075;-74
2023/04/25 12:53:11;;;;;;;3.75;1.10;;;13.30;50.00;;;;;;5029129;28;20053;-74
2023/04/25 12:55:37;;;;;;;4.40;1.20;;;13.30;50.00;;;;;;5026876;28;20111;-75
2023/04/25 12:58:03;;;;;;;4.57;1.30;;;13.40;50.20;;;;;;5026392;28;20502;-74
2023/04/25 13:00:29;;;;;;;3.67;1.10;;;13.40;50.00;;;;;;5026996;28;20026;-74
2023/04/25 13:02:55;;;;;;;4.90;1.23;;;13.40;50.00;;;;;;5028045;28;20026;-74